Maldives Meteorological Service

SYNOP

Station Code SYNOP
43555
AAXX 24124 43555 12470 72712 10300 20247 30101 40103 60002 82238 333 10319 59006 82818 87276=
43533
AAXX 24124 43533 12462 72908 10296 20254 30095 40097 60042 8227/ 333 10321 59005 82817 87362 =
43577
AAXX 24124 43577 12463 72003 10294 20244 30105 40107 60002 82238 333 10312 59006 82818 87275=
43588
AAXX 24124 43588 12462 72003 10290 20244 30106 40107 60002 8223/ 333 10312 59003 82818 87362=
43599
AAXX 24124 43599 12460 71805 10300 20246 30109 40111 60002 82238 333 10314 59002 82818 83362 87276=
Last Updated : 2019-08-24 17:00:20